Time;durP1;ratioP1;P1;durP2;ratioP2;P2;SDS_P1;SDS_P2;PMS_P1;PMS_P2;Temp;Humidity;BMP_temperature;BMP_pressure;BME280_temperature;BME280_humidity;BME280_pressure;Samples;Min_cycle;Max_cycle;Signal;HPM_P1;HPM_P2
2024/02/10 00:00:16;;;;;;;10.03;4.50;;;11.50;99.90;;;;;;5071690;28;20414;-73
2024/02/10 00:02:44;;;;;;;4.67;4.17;;;11.40;99.90;;;;;;5072166;28;20892;-73
2024/02/10 00:05:10;;;;;;;8.23;4.40;;;11.40;99.90;;;;;;5072240;28;20405;-73
2024/02/10 00:07:36;;;;;;;5.63;4.67;;;11.30;99.90;;;;;;5070801;28;20467;-74
2024/02/10 00:10:02;;;;;;;5.93;4.90;;;11.30;99.90;;;;;;5070601;28;20500;-73
2024/02/10 00:12:28;;;;;;;12.53;6.27;;;11.30;99.90;;;;;;5070937;28;20174;-73
2024/02/10 00:14:56;;;;;;;8.70;5.17;;;11.30;99.90;;;;;;5072022;28;20446;-73
2024/02/10 00:17:22;;;;;;;6.60;4.17;;;11.30;99.90;;;;;;5072256;28;20197;-73
2024/02/10 00:19:49;;;;;;;9.40;4.90;;;11.30;99.90;;;;;;5071710;28;20420;-74
2024/02/10 00:22:17;;;;;;;7.67;4.53;;;11.20;99.90;;;;;;5071989;28;20420;-74
2024/02/10 00:24:43;;;;;;;11.13;5.57;;;11.30;99.90;;;;;;5072169;28;20409;-74
2024/02/10 00:27:10;;;;;;;13.30;5.53;;;11.20;99.90;;;;;;5071868;28;20435;-74
2024/02/10 00:29:37;;;;;;;4.30;3.83;;;11.20;99.90;;;;;;5071878;28;20404;-74
2024/02/10 00:32:03;;;;;;;6.60;4.43;;;11.30;99.90;;;;;;5070562;28;20400;-72
2024/02/10 00:34:33;;;;;;;7.37;4.70;;;11.30;99.90;;;;;;5071815;28;20769;-72
2024/02/10 00:36:59;;;;;;;6.10;4.40;;;11.30;99.90;;;;;;5071741;28;20923;-73
2024/02/10 00:39:24;;;;;;;4.43;4.03;;;11.40;99.90;;;;;;5071591;28;20407;-72
2024/02/10 00:41:52;;;;;;;4.73;4.30;;;11.40;99.90;;;;;;5071854;28;20571;-74
2024/02/10 00:44:17;;;;;;;7.07;5.13;;;11.50;99.90;;;;;;5071839;28;20163;-73
2024/02/10 00:46:44;;;;;;;6.90;4.60;;;11.50;99.90;;;;;;5070341;28;20416;-74
2024/02/10 00:49:09;;;;;;;3.73;3.30;;;11.60;99.90;;;;;;5071295;28;20193;-74
2024/02/10 00:51:35;;;;;;;7.87;4.87;;;11.60;99.90;;;;;;5070446;28;20428;-74
2024/02/10 00:54:01;;;;;;;7.00;3.70;;;11.60;99.90;;;;;;5070322;28;20185;-74
2024/02/10 00:56:26;;;;;;;5.47;4.57;;;11.60;99.90;;;;;;5071548;28;20193;-74
2024/02/10 00:58:52;;;;;;;6.67;5.03;;;11.60;99.90;;;;;;5071392;28;20607;-73
2024/02/10 01:01:21;;;;;;;6.70;4.53;;;11.50;99.90;;;;;;5071471;28;20170;-72
2024/02/10 01:03:48;;;;;;;5.87;4.80;;;11.40;99.90;;;;;;5071642;28;20158;-73
2024/02/10 01:06:21;;;;;;;5.73;5.10;;;11.30;99.90;;;;;;5071511;28;20511;-73
2024/02/10 01:08:48;;;;;;;8.07;6.30;;;11.10;99.90;;;;;;5071199;28;20783;-73
2024/02/10 01:11:19;;;;;;;9.73;5.60;;;11.00;99.90;;;;;;5071558;28;20405;-73
2024/02/10 01:13:45;;;;;;;7.77;6.13;;;10.90;99.90;;;;;;5075217;28;20472;-73
2024/02/10 01:16:17;;;;;;;5.73;4.87;;;10.90;99.90;;;;;;5075452;28;20416;-73
2024/02/10 01:18:48;;;;;;;7.37;6.27;;;10.80;99.90;;;;;;5074156;28;20416;-73
2024/02/10 01:21:15;;;;;;;9.50;6.70;;;10.80;99.90;;;;;;5075606;28;20411;-74
2024/02/10 01:23:46;;;;;;;8.20;6.23;;;10.90;99.90;;;;;;5075382;28;20404;-73
2024/02/10 01:26:13;;;;;;;6.57;5.90;;;10.90;99.90;;;;;;5075120;28;20511;-73
2024/02/10 01:28:50;;;;;;;10.53;4.80;;;10.90;99.90;;;;;;5073631;28;20973;-73
2024/02/10 01:31:15;;;;;;;7.60;5.40;;;10.90;99.90;;;;;;5075303;28;20785;-73
2024/02/10 01:33:41;;;;;;;5.83;5.00;;;11.00;99.90;;;;;;5075078;28;20401;-73
2024/02/10 01:36:09;;;;;;;7.30;5.87;;;11.00;99.90;;;;;;5074621;28;20186;-73
2024/02/10 01:38:37;;;;;;;5.90;4.60;;;10.90;99.90;;;;;;5074775;28;20255;-73
2024/02/10 01:41:04;;;;;;;4.83;4.33;;;10.80;99.90;;;;;;5073716;28;20408;-73
2024/02/10 01:43:29;;;;;;;7.30;4.50;;;10.90;99.90;;;;;;5074917;28;20399;-73
2024/02/10 01:45:55;;;;;;;4.70;4.20;;;10.80;99.90;;;;;;5074784;28;20439;-73
2024/02/10 01:48:22;;;;;;;11.10;4.33;;;10.90;99.90;;;;;;5074639;28;20189;-73
2024/02/10 01:50:48;;;;;;;3.37;3.07;;;10.90;99.90;;;;;;5073535;28;20416;-74
2024/02/10 01:53:13;;;;;;;8.07;3.13;;;10.90;99.90;;;;;;5074637;28;21104;-72
2024/02/10 01:55:39;;;;;;;3.60;2.47;;;10.90;99.90;;;;;;5073505;28;20429;-72
2024/02/10 01:58:06;;;;;;;4.43;2.80;;;10.90;99.90;;;;;;5074727;28;20511;-73
2024/02/10 02:00:32;;;;;;;3.13;2.83;;;11.00;99.90;;;;;;5074458;28;20408;-72
2024/02/10 02:03:01;;;;;;;2.80;2.17;;;11.00;99.90;;;;;;5073405;28;20405;-72
2024/02/10 02:05:32;;;;;;;2.20;2.00;;;11.00;99.90;;;;;;5073320;28;20209;-72
2024/02/10 02:07:59;;;;;;;3.90;2.13;;;11.00;99.90;;;;;;5074278;28;20456;-73
2024/02/10 02:10:25;;;;;;;2.70;2.50;;;11.00;99.90;;;;;;5074210;28;20400;-72
2024/02/10 02:12:53;;;;;;;2.93;2.30;;;11.00;99.90;;;;;;5074229;28;20537;-72
2024/02/10 02:15:19;;;;;;;2.33;2.00;;;11.00;99.90;;;;;;5073822;28;20162;-72
2024/02/10 02:17:47;;;;;;;4.37;2.70;;;11.00;99.90;;;;;;5074300;28;20483;-72
2024/02/10 02:20:13;;;;;;;2.53;2.30;;;10.90;99.90;;;;;;5074143;28;20415;-73
2024/02/10 02:22:48;;;;;;;2.70;2.30;;;11.00;99.90;;;;;;5073914;28;21010;-73
2024/02/10 02:25:13;;;;;;;2.90;2.30;;;11.00;99.90;;;;;;5072757;28;20407;-73
2024/02/10 02:27:39;;;;;;;4.47;2.23;;;11.00;99.90;;;;;;5074061;28;20448;-73
2024/02/10 02:30:05;;;;;;;2.37;2.13;;;11.00;99.90;;;;;;5073916;28;20163;-73
2024/02/10 02:32:34;;;;;;;2.60;2.40;;;11.00;99.90;;;;;;5073812;28;20162;-73
2024/02/10 02:35:06;;;;;;;3.77;2.00;;;11.10;99.90;;;;;;5072593;28;20836;-73
2024/02/10 02:37:32;;;;;;;3.03;2.60;;;11.00;99.90;;;;;;5072732;28;20951;-73
2024/02/10 02:39:58;;;;;;;4.30;2.13;;;11.00;99.90;;;;;;5073781;28;20401;-73
2024/02/10 02:42:23;;;;;;;5.17;2.53;;;10.90;99.90;;;;;;5073897;28;20841;-74
2024/02/10 02:44:49;;;;;;;4.70;2.70;;;10.80;99.90;;;;;;5073894;28;20166;-74
2024/02/10 02:47:14;;;;;;;4.23;2.50;;;10.80;99.90;;;;;;5073648;28;20190;-75
2024/02/10 02:49:40;;;;;;;3.30;2.50;;;10.70;99.90;;;;;;5073459;28;20594;-74
2024/02/10 02:52:07;;;;;;;3.17;2.60;;;10.60;99.90;;;;;;5073557;28;20174;-74
2024/02/10 02:54:34;;;;;;;2.37;2.17;;;10.60;99.90;;;;;;5073778;28;20522;-74
2024/02/10 02:57:00;;;;;;;3.10;2.80;;;10.40;99.90;;;;;;5073559;28;20425;-73
2024/02/10 02:59:25;;;;;;;4.10;3.07;;;10.30;99.90;;;;;;5073373;28;20411;-73
2024/02/10 03:01:54;;;;;;;7.77;2.70;;;10.20;99.90;;;;;;5073531;28;20177;-73
2024/02/10 03:04:19;;;;;;;3.17;2.87;;;10.00;99.90;;;;;;5073431;28;20170;-73
2024/02/10 03:06:45;;;;;;;4.87;3.33;;;9.90;99.90;;;;;;5073417;28;20931;-73
2024/02/10 03:09:12;;;;;;;5.87;4.13;;;9.90;99.90;;;;;;5071793;28;20210;-73
2024/02/10 03:11:38;;;;;;;5.10;4.00;;;9.80;99.90;;;;;;5071529;28;20175;-73
2024/02/10 03:14:04;;;;;;;4.53;4.10;;;9.80;99.90;;;;;;5073241;28;20404;-73
2024/02/10 03:16:33;;;;;;;5.03;4.63;;;9.80;99.90;;;;;;5073186;28;20209;-73
2024/02/10 03:19:04;;;;;;;5.70;3.93;;;9.80;99.90;;;;;;5073006;28;20249;-73
2024/02/10 03:21:35;;;;;;;4.53;4.13;;;9.70;99.90;;;;;;5073150;28;20409;-73
2024/02/10 03:24:04;;;;;;;6.47;5.27;;;9.70;99.90;;;;;;5073040;28;20412;-73
2024/02/10 03:26:30;;;;;;;7.80;4.90;;;9.60;99.90;;;;;;5072761;28;20440;-73
2024/02/10 03:28:57;;;;;;;5.77;4.23;;;9.50;99.90;;;;;;5072747;28;20451;-73
2024/02/10 03:31:23;;;;;;;6.10;4.23;;;9.30;99.90;;;;;;5072963;28;20751;-73
2024/02/10 03:33:48;;;;;;;5.87;4.60;;;9.30;99.90;;;;;;5072799;28;20416;-73
2024/02/10 03:39:37;;;;;;;5.03;4.60;;;9.10;99.90;;;;;;5071308;28;20240;-73
2024/02/10 03:42:04;;;;;;;10.10;4.83;;;9.00;99.90;;;;;;5072609;28;20408;-73
2024/02/10 03:44:30;;;;;;;5.37;4.87;;;9.00;99.90;;;;;;5072689;28;20469;-73
2024/02/10 03:46:57;;;;;;;5.33;3.80;;;8.90;99.90;;;;;;5072471;28;20425;-73
2024/02/10 03:49:23;;;;;;;3.83;3.40;;;9.00;99.90;;;;;;5072334;28;20452;-74
2024/02/10 03:51:48;;;;;;;4.23;3.70;;;8.90;99.90;;;;;;5072446;28;20503;-73
2024/02/10 03:54:14;;;;;;;3.10;2.80;;;8.90;99.90;;;;;;5072387;28;20213;-74
2024/02/10 03:56:46;;;;;;;3.50;2.70;;;8.90;99.90;;;;;;5070923;28;20191;-73
2024/02/10 03:59:13;;;;;;;6.73;3.37;;;8.90;99.90;;;;;;5072115;28;20249;-73
2024/02/10 04:01:42;;;;;;;3.50;3.20;;;8.80;99.90;;;;;;5072363;28;20959;-73
2024/02/10 04:04:07;;;;;;;6.23;3.37;;;8.70;99.90;;;;;;5072248;28;20462;-74
2024/02/10 04:06:33;;;;;;;4.17;3.73;;;8.70;99.90;;;;;;5072153;28;20432;-73
2024/02/10 04:08:58;;;;;;;5.00;4.27;;;8.70;99.90;;;;;;5070555;28;20201;-73
2024/02/10 04:11:24;;;;;;;8.50;4.97;;;8.70;99.90;;;;;;5072180;28;20173;-73
2024/02/10 04:13:50;;;;;;;4.07;3.33;;;8.60;99.90;;;;;;5070918;28;20220;-73
2024/02/10 04:16:16;;;;;;;4.50;3.37;;;8.60;99.90;;;;;;5072082;28;20183;-73
2024/02/10 04:18:42;;;;;;;4.87;3.73;;;8.70;99.90;;;;;;5071943;28;20408;-73
2024/02/10 04:21:09;;;;;;;5.03;4.57;;;8.60;99.90;;;;;;5072141;28;20225;-73
2024/02/10 04:23:37;;;;;;;3.50;3.20;;;8.60;99.90;;;;;;5071851;28;20401;-74
2024/02/10 04:26:03;;;;;;;5.47;4.40;;;8.60;99.90;;;;;;5071898;28;20439;-73
2024/02/10 04:28:29;;;;;;;4.00;3.70;;;8.60;99.90;;;;;;5071628;28;20444;-74
2024/02/10 04:30:55;;;;;;;4.00;3.53;;;8.60;99.90;;;;;;5072355;28;20399;-74
2024/02/10 04:33:21;;;;;;;8.43;3.93;;;8.60;99.90;;;;;;5071843;28;20537;-73
2024/02/10 04:35:47;;;;;;;13.53;3.30;;;8.60;99.90;;;;;;5071929;28;20424;-74
2024/02/10 04:38:13;;;;;;;4.00;3.63;;;8.50;99.90;;;;;;5071809;28;20396;-74
2024/02/10 04:40:39;;;;;;;4.43;4.00;;;8.50;99.90;;;;;;5071592;28;20899;-73
2024/02/10 04:43:05;;;;;;;11.27;4.03;;;8.40;99.90;;;;;;5071932;28;20408;-73
2024/02/10 04:45:35;;;;;;;4.13;3.73;;;8.40;99.90;;;;;;5071708;28;20195;-73
2024/02/10 04:48:07;;;;;;;5.20;4.03;;;8.40;99.90;;;;;;5071825;28;20440;-73
2024/02/10 04:50:33;;;;;;;6.13;5.17;;;8.40;99.90;;;;;;5071603;28;20747;-74
2024/02/10 04:52:58;;;;;;;4.57;4.17;;;8.40;99.90;;;;;;5071629;28;20420;-73
2024/02/10 04:55:25;;;;;;;5.30;4.27;;;8.30;99.90;;;;;;5071806;28;20629;-73
2024/02/10 04:57:54;;;;;;;5.00;4.30;;;8.30;99.90;;;;;;5071766;28;20163;-73
2024/02/10 05:00:21;;;;;;;4.83;3.50;;;8.30;99.90;;;;;;5071401;28;20419;-73
2024/02/10 05:02:48;;;;;;;3.60;3.20;;;8.30;99.90;;;;;;5071685;28;20404;-74
2024/02/10 05:05:15;;;;;;;3.70;2.90;;;8.30;99.90;;;;;;5071520;28;20408;-73
2024/02/10 05:07:58;;;;;;;3.63;3.13;;;8.30;99.90;;;;;;5071603;28;20566;-73
2024/02/10 05:10:25;;;;;;;4.00;2.70;;;8.20;99.90;;;;;;5070206;28;20392;-73
2024/02/10 05:12:51;;;;;;;2.60;2.40;;;8.20;99.90;;;;;;5071743;28;20395;-73
2024/02/10 05:15:18;;;;;;;3.33;2.87;;;8.20;99.90;;;;;;5070141;28;20404;-73
2024/02/10 05:17:51;;;;;;;4.37;2.90;;;8.10;99.90;;;;;;5071529;28;20404;-74
2024/02/10 05:20:19;;;;;;;4.40;3.00;;;8.10;99.90;;;;;;5070129;28;20419;-73
2024/02/10 05:22:49;;;;;;;3.13;2.70;;;8.10;99.90;;;;;;5071477;28;20401;-73
2024/02/10 05:25:20;;;;;;;5.50;3.73;;;8.10;99.90;;;;;;5071425;28;20416;-73
2024/02/10 05:27:49;;;;;;;3.67;3.37;;;8.30;99.90;;;;;;5071443;28;20440;-74
2024/02/10 05:30:24;;;;;;;3.50;3.20;;;8.30;99.90;;;;;;5071297;28;20807;-74
2024/02/10 05:32:50;;;;;;;4.70;3.93;;;8.30;99.90;;;;;;5071350;28;20396;-75
2024/02/10 05:35:20;;;;;;;10.43;3.07;;;8.20;99.90;;;;;;5071302;28;20457;-74
2024/02/10 05:37:49;;;;;;;3.60;2.73;;;8.20;99.90;;;;;;5071299;28;20409;-74
2024/02/10 05:40:15;;;;;;;5.70;2.97;;;8.20;99.90;;;;;;5071268;28;20770;-74
2024/02/10 05:42:46;;;;;;;3.00;2.57;;;8.20;99.90;;;;;;5071552;28;20404;-73
2024/02/10 05:45:14;;;;;;;6.30;3.63;;;8.20;99.90;;;;;;5071627;28;20432;-74
2024/02/10 05:47:39;;;;;;;3.43;3.07;;;8.30;99.90;;;;;;5071060;28;20460;-73
2024/02/10 05:50:12;;;;;;;2.40;2.20;;;8.30;99.90;;;;;;5069691;28;20473;-74
2024/02/10 05:52:42;;;;;;;3.43;2.93;;;8.20;99.90;;;;;;5071106;28;20174;-73
2024/02/10 05:55:12;;;;;;;3.10;2.80;;;8.20;99.90;;;;;;5071137;28;20404;-73
2024/02/10 05:57:38;;;;;;;3.63;2.67;;;8.20;99.90;;;;;;5071580;28;20387;-74
2024/02/10 06:00:09;;;;;;;4.20;3.10;;;8.10;99.90;;;;;;5074595;28;20538;-74
2024/02/10 06:02:38;;;;;;;3.27;3.00;;;8.10;99.90;;;;;;5074680;28;20405;-73
2024/02/10 06:05:12;;;;;;;4.10;3.23;;;8.10;99.90;;;;;;5073462;28;20420;-74
2024/02/10 06:07:39;;;;;;;3.30;3.00;;;8.10;99.90;;;;;;5074579;28;20440;-74
2024/02/10 06:10:15;;;;;;;3.10;2.80;;;8.20;99.90;;;;;;5073110;28;20499;-73
2024/02/10 06:12:48;;;;;;;5.90;3.57;;;8.20;99.90;;;;;;5074527;28;20763;-74
2024/02/10 06:15:17;;;;;;;4.30;3.70;;;8.30;99.90;;;;;;5074399;28;20424;-74
2024/02/10 06:17:45;;;;;;;3.30;3.00;;;8.30;99.90;;;;;;5073181;28;20431;-73
2024/02/10 06:20:14;;;;;;;3.27;2.60;;;8.20;99.90;;;;;;5072964;28;20409;-74
2024/02/10 06:22:41;;;;;;;3.00;2.80;;;8.20;99.90;;;;;;5074291;28;20817;-73
2024/02/10 06:25:15;;;;;;;3.27;2.97;;;8.20;99.90;;;;;;5074312;28;20409;-73
2024/02/10 06:27:46;;;;;;;5.80;3.87;;;8.10;99.90;;;;;;5074167;28;20444;-74
2024/02/10 06:30:16;;;;;;;4.53;3.63;;;8.00;99.90;;;;;;5074121;28;20763;-73
2024/02/10 06:32:43;;;;;;;8.60;4.27;;;8.00;99.90;;;;;;5074011;28;20416;-73
2024/02/10 06:35:13;;;;;;;4.33;3.93;;;7.90;99.90;;;;;;5074116;28;20404;-73
2024/02/10 06:37:40;;;;;;;7.37;4.23;;;7.90;99.90;;;;;;5074018;28;20404;-74
2024/02/10 06:40:08;;;;;;;5.80;4.93;;;7.80;99.90;;;;;;5073841;28;20401;-74
2024/02/10 06:42:36;;;;;;;7.77;5.50;;;7.80;99.90;;;;;;5072638;28;20416;-74
2024/02/10 06:45:16;;;;;;;6.43;5.87;;;7.80;99.90;;;;;;5073992;28;20458;-73
2024/02/10 06:47:46;;;;;;;7.80;5.73;;;7.80;99.90;;;;;;5073890;28;20440;-74
2024/02/10 06:50:23;;;;;;;7.83;6.57;;;7.70;99.90;;;;;;5074015;28;20400;-74
2024/02/10 06:52:49;;;;;;;9.93;6.13;;;7.70;99.90;;;;;;5073632;28;20499;-74
2024/02/10 06:55:15;;;;;;;9.53;7.53;;;7.70;99.90;;;;;;5073885;28;20899;-75
2024/02/10 06:57:42;;;;;;;9.50;8.13;;;7.80;99.90;;;;;;5073665;28;20488;-75
2024/02/10 07:00:15;;;;;;;8.73;6.47;;;7.80;99.90;;;;;;5073451;28;20781;-74
2024/02/10 07:02:42;;;;;;;9.27;7.20;;;7.80;99.90;;;;;;5073496;28;20443;-74
2024/02/10 07:05:13;;;;;;;7.33;6.53;;;7.90;99.90;;;;;;5073491;28;20401;-74
2024/02/10 07:07:41;;;;;;;7.87;6.63;;;7.90;99.90;;;;;;5073540;28;20780;-74
2024/02/10 07:10:13;;;;;;;8.73;6.70;;;7.90;99.90;;;;;;5072170;28;20403;-74
2024/02/10 07:12:42;;;;;;;10.60;7.50;;;7.90;99.90;;;;;;5073385;28;20430;-74
2024/02/10 07:15:12;;;;;;;8.40;6.93;;;8.00;99.90;;;;;;5073306;28;20457;-75
2024/02/10 07:17:43;;;;;;;7.20;5.57;;;8.00;99.90;;;;;;5073143;28;20404;-74
2024/02/10 07:20:10;;;;;;;10.30;6.70;;;8.10;99.90;;;;;;5073007;28;20879;-74
2024/02/10 07:22:36;;;;;;;7.97;7.17;;;8.20;99.90;;;;;;5073033;28;20507;-74
2024/02/10 07:25:03;;;;;;;7.20;5.83;;;8.30;99.90;;;;;;5073125;28;20890;-75
2024/02/10 07:27:29;;;;;;;8.67;7.07;;;8.50;99.90;;;;;;5072935;28;20182;-74
2024/02/10 07:29:54;;;;;;;8.00;6.80;;;8.60;99.90;;;;;;5072899;28;20411;-74
2024/02/10 07:32:20;;;;;;;9.17;6.47;;;8.70;99.90;;;;;;5072773;28;20158;-75
2024/02/10 07:34:47;;;;;;;12.37;7.23;;;8.80;99.90;;;;;;5072886;28;20641;-72
2024/02/10 07:37:13;;;;;;;7.20;6.10;;;8.90;99.90;;;;;;5072611;28;20679;-72
2024/02/10 07:39:40;;;;;;;10.07;7.00;;;9.00;99.90;;;;;;5072200;28;20484;-72
2024/02/10 07:42:06;;;;;;;7.10;6.03;;;9.10;99.90;;;;;;5071360;28;20253;-73
2024/02/10 07:44:31;;;;;;;10.20;5.67;;;9.10;99.90;;;;;;5072592;28;20396;-72
2024/02/10 07:46:57;;;;;;;9.67;7.70;;;9.20;99.90;;;;;;5072385;28;20997;-72
2024/02/10 07:49:22;;;;;;;12.00;6.43;;;9.20;99.90;;;;;;5070792;28;20197;-73
2024/02/10 07:51:48;;;;;;;8.40;6.80;;;9.30;99.90;;;;;;5072318;28;20633;-73
2024/02/10 07:54:17;;;;;;;7.00;5.80;;;9.40;99.90;;;;;;5072344;28;20171;-73
2024/02/10 07:56:43;;;;;;;9.60;7.67;;;9.40;99.90;;;;;;5072288;28;20428;-73
2024/02/10 07:59:08;;;;;;;7.33;6.33;;;9.40;99.90;;;;;;5072212;28;20525;-73
2024/02/10 08:01:34;;;;;;;6.47;5.83;;;9.60;99.90;;;;;;5072199;28;20570;-73
2024/02/10 08:03:59;;;;;;;10.33;6.90;;;9.80;99.90;;;;;;5070929;28;20232;-73
2024/02/10 08:06:32;;;;;;;8.90;6.20;;;9.80;99.90;;;;;;5072280;28;20215;-73
2024/02/10 08:09:01;;;;;;;6.70;5.83;;;9.90;99.90;;;;;;5071880;28;20205;-73
2024/02/10 08:11:30;;;;;;;6.57;5.90;;;10.10;99.90;;;;;;5072153;28;20401;-73
2024/02/10 08:13:56;;;;;;;8.83;7.20;;;10.30;99.90;;;;;;5072027;28;20496;-74
2024/02/10 08:16:30;;;;;;;9.27;6.50;;;10.70;99.90;;;;;;5071933;28;20428;-73
2024/02/10 08:18:56;;;;;;;10.27;7.60;;;11.30;99.90;;;;;;5071706;28;20409;-73
2024/02/10 08:21:24;;;;;;;11.27;8.27;;;11.70;99.90;;;;;;5071694;28;20405;-68
2024/02/10 08:23:52;;;;;;;11.90;8.63;;;12.00;99.90;;;;;;5064062;28;20420;-68
2024/02/10 08:26:21;;;;;;;12.90;9.27;;;12.60;99.90;;;;;;5062487;28;21024;-68
2024/02/10 08:28:56;;;;;;;10.93;8.20;;;13.40;99.90;;;;;;5060688;28;20453;-68
2024/02/10 08:31:23;;;;;;;13.70;9.13;;;14.20;99.90;;;;;;5065661;28;20504;-68
2024/02/10 08:33:49;;;;;;;10.50;9.40;;;15.20;99.90;;;;;;5059101;28;20412;-68
2024/02/10 08:36:16;;;;;;;10.20;8.83;;;15.80;99.90;;;;;;5061154;28;20443;-68
2024/02/10 08:38:42;;;;;;;9.17;7.93;;;16.10;99.90;;;;;;5061134;28;20217;-68
2024/02/10 08:41:07;;;;;;;7.77;7.07;;;16.70;99.90;;;;;;5060826;28;20420;-68
2024/02/10 08:43:34;;;;;;;6.37;5.57;;;17.40;99.90;;;;;;5062269;28;20469;-68
2024/02/10 08:46:00;;;;;;;4.60;4.20;;;17.80;99.90;;;;;;5060890;28;20190;-70
2024/02/10 08:48:26;;;;;;;4.53;4.17;;;18.40;99.90;;;;;;5060516;28;20452;-67
2024/02/10 08:50:53;;;;;;;4.23;3.60;;;18.80;99.90;;;;;;5062279;28;20412;-67
2024/02/10 08:53:19;;;;;;;7.63;3.47;;;18.80;99.90;;;;;;5060743;28;20457;-68
2024/02/10 08:55:45;;;;;;;5.13;4.17;;;19.20;99.90;;;;;;5060699;28;20511;-68
2024/02/10 08:58:11;;;;;;;5.90;4.20;;;19.30;99.90;;;;;;5062345;28;20876;-68
2024/02/10 09:00:38;;;;;;;5.40;4.20;;;19.30;99.90;;;;;;5060174;28;20289;-68
2024/02/10 09:03:05;;;;;;;3.27;2.97;;;19.30;99.90;;;;;;5061067;28;20178;-68
2024/02/10 09:05:30;;;;;;;3.47;3.17;;;19.70;99.90;;;;;;5062148;28;20422;-68
2024/02/10 09:07:56;;;;;;;3.77;3.40;;;20.00;99.90;;;;;;5060137;28;20449;-68
2024/02/10 09:10:21;;;;;;;5.20;2.80;;;20.30;99.90;;;;;;5061074;28;20652;-68
2024/02/10 09:12:47;;;;;;;3.33;2.67;;;20.80;99.90;;;;;;5061712;28;20167;-68
2024/02/10 09:15:12;;;;;;;5.30;3.50;;;21.00;99.90;;;;;;5059921;28;20159;-68
2024/02/10 09:17:38;;;;;;;4.00;2.97;;;21.30;99.90;;;;;;5059973;28;20171;-68
2024/02/10 09:20:08;;;;;;;3.63;3.33;;;21.80;99.90;;;;;;5060686;28;20239;-68
2024/02/10 09:22:34;;;;;;;3.17;2.87;;;22.10;97.50;;;;;;5062079;28;20216;-68
2024/02/10 09:25:00;;;;;;;3.70;3.40;;;22.20;97.90;;;;;;5060634;28;20417;-68
2024/02/10 09:27:25;;;;;;;2.77;2.57;;;22.40;93.30;;;;;;5060392;28;20519;-68
2024/02/10 09:29:54;;;;;;;5.20;2.67;;;22.70;91.50;;;;;;5061744;28;20224;-68
2024/02/10 09:32:20;;;;;;;2.60;2.40;;;22.90;90.10;;;;;;5060464;28;20185;-68
2024/02/10 09:34:46;;;;;;;2.40;1.97;;;22.80;88.60;;;;;;5064039;28;20418;-68
2024/02/10 09:37:14;;;;;;;3.10;2.67;;;22.90;88.30;;;;;;5065571;28;20420;-68
2024/02/10 09:39:41;;;;;;;2.60;2.30;;;23.20;78.70;;;;;;5064091;28;20920;-68
2024/02/10 09:42:15;;;;;;;5.27;2.23;;;23.20;74.80;;;;;;5071957;28;20891;-68
2024/02/10 09:44:45;;;;;;;2.80;2.60;;;23.20;75.40;;;;;;5075047;28;20769;-68
2024/02/10 09:47:16;;;;;;;2.27;2.07;;;23.10;71.80;;;;;;5074891;28;20447;-68
2024/02/10 09:49:42;;;;;;;2.60;2.20;;;22.70;70.20;;;;;;5074665;28;20972;-68
2024/02/10 09:52:11;;;;;;;3.43;2.50;;;22.20;72.90;;;;;;5065962;28;20425;-68
2024/02/10 09:54:37;;;;;;;2.30;2.10;;;21.90;79.40;;;;;;5073553;28;20412;-68
2024/02/10 09:57:03;;;;;;;3.17;2.10;;;21.70;82.20;;;;;;5074480;28;20800;-68
2024/02/10 09:59:29;;;;;;;2.53;2.07;;;21.80;86.40;;;;;;5074288;28;20182;-68
2024/02/10 10:01:59;;;;;;;3.00;2.47;;;22.10;86.60;;;;;;5074581;28;20883;-68
2024/02/10 10:04:25;;;;;;;2.03;1.70;;;22.30;81.60;;;;;;5074339;28;20481;-68
2024/02/10 10:06:51;;;;;;;2.87;2.47;;;22.20;75.60;;;;;;5070369;28;20437;-68
2024/02/10 10:09:20;;;;;;;3.30;2.77;;;22.20;77.30;;;;;;5062306;28;20973;-67
2024/02/10 10:11:48;;;;;;;2.33;2.13;;;21.80;79.90;;;;;;5070213;28;20257;-68
2024/02/10 10:14:18;;;;;;;2.23;2.13;;;21.80;83.70;;;;;;5058758;28;20413;-68
2024/02/10 10:16:58;;;;;;;2.83;1.83;;;21.70;83.30;;;;;;5074238;28;20463;-68
2024/02/10 10:19:27;;;;;;;2.27;1.70;;;21.90;85.40;;;;;;5073981;28;20412;-68
2024/02/10 10:21:55;;;;;;;1.80;1.70;;;22.30;81.50;;;;;;5074156;28;20497;-68
2024/02/10 10:24:21;;;;;;;2.30;2.10;;;22.80;76.80;;;;;;5059139;28;20424;-68
2024/02/10 10:26:53;;;;;;;3.63;1.97;;;23.00;69.90;;;;;;5072863;28;20939;-68
2024/02/10 10:29:20;;;;;;;2.20;1.70;;;23.10;66.80;;;;;;5073627;28;20517;-68
2024/02/10 10:31:48;;;;;;;1.50;1.40;;;23.50;66.30;;;;;;5073991;28;20473;-68
2024/02/10 10:34:18;;;;;;;2.30;2.07;;;24.00;64.80;;;;;;5070752;28;20474;-68
2024/02/10 10:36:48;;;;;;;2.33;1.67;;;25.20;60.30;;;;;;5062052;28;20516;-68
2024/02/10 10:39:14;;;;;;;1.83;1.73;;;26.30;55.10;;;;;;5064631;28;20418;-68
2024/02/10 10:41:42;;;;;;;2.90;2.07;;;27.50;52.20;;;;;;5058810;28;20428;-69
2024/02/10 10:44:09;;;;;;;1.57;1.47;;;28.40;49.70;;;;;;5062680;28;20441;-68
2024/02/10 10:46:35;;;;;;;1.50;1.30;;;29.10;46.20;;;;;;5073213;28;20430;-68
2024/02/10 10:49:01;;;;;;;3.10;1.60;;;29.30;45.00;;;;;;5073436;28;20448;-68
2024/02/10 10:51:31;;;;;;;1.37;1.27;;;29.50;42.80;;;;;;5073491;28;20400;-69
2024/02/10 10:53:56;;;;;;;1.70;1.40;;;29.40;42.70;;;;;;5072380;28;20806;-72
2024/02/10 10:56:24;;;;;;;1.67;1.40;;;29.70;42.30;;;;;;5074039;28;20421;-71
2024/02/10 10:59:01;;;;;;;1.90;1.23;;;29.90;42.40;;;;;;5072263;28;20178;-71
2024/02/10 11:01:29;;;;;;;1.17;1.07;;;29.20;41.00;;;;;;5073775;28;20550;-70
2024/02/10 11:03:59;;;;;;;3.30;1.77;;;29.20;41.70;;;;;;5073673;28;20755;-67
2024/02/10 11:06:28;;;;;;;1.97;1.70;;;28.50;41.10;;;;;;5073495;28;20473;-67
2024/02/10 11:08:54;;;;;;;2.70;1.60;;;27.80;41.70;;;;;;5073152;28;20456;-68
2024/02/10 11:11:20;;;;;;;3.83;1.70;;;27.00;42.50;;;;;;5073379;28;20396;-68
2024/02/10 11:13:45;;;;;;;2.40;1.30;;;26.20;43.70;;;;;;5073282;28;20412;-67
2024/02/10 11:16:15;;;;;;;1.50;1.40;;;25.80;45.60;;;;;;5073063;28;20229;-67
2024/02/10 11:18:44;;;;;;;1.60;1.50;;;24.90;45.50;;;;;;5073003;28;20174;-67
2024/02/10 11:21:18;;;;;;;1.60;1.43;;;24.30;46.60;;;;;;5071870;28;20413;-67
2024/02/10 11:24:05;;;;;;;2.50;1.97;;;23.90;48.00;;;;;;5073000;28;20411;-66
2024/02/10 11:26:36;;;;;;;1.70;1.60;;;23.00;48.80;;;;;;5072880;28;20477;-65
2024/02/10 11:29:03;;;;;;;2.03;1.87;;;22.70;50.20;;;;;;5072595;28;20482;-66
2024/02/10 11:31:28;;;;;;;2.03;1.83;;;22.40;51.10;;;;;;5072800;28;20411;-65
2024/02/10 11:34:05;;;;;;;1.50;1.40;;;22.20;52.00;;;;;;5072724;28;20404;-65
2024/02/10 11:36:37;;;;;;;1.90;1.60;;;21.80;53.00;;;;;;5072720;28;20186;-65
2024/02/10 11:39:07;;;;;;;2.23;2.00;;;21.50;54.20;;;;;;5073104;28;20766;-66
2024/02/10 11:41:42;;;;;;;1.70;1.60;;;21.20;57.70;;;;;;5072701;28;20412;-67
2024/02/10 11:44:08;;;;;;;2.10;1.90;;;21.00;62.40;;;;;;5072590;28;20428;-66
2024/02/10 11:46:35;;;;;;;2.67;2.30;;;20.80;76.40;;;;;;5071522;28;20471;-67
2024/02/10 11:49:01;;;;;;;1.57;1.43;;;20.70;79.90;;;;;;5071034;28;20487;-67
2024/02/10 11:51:28;;;;;;;2.50;2.30;;;20.70;89.90;;;;;;5072516;28;20436;-67
2024/02/10 11:53:58;;;;;;;1.70;1.60;;;20.40;96.30;;;;;;5072304;28;20186;-67
2024/02/10 11:56:25;;;;;;;2.40;1.93;;;20.40;98.00;;;;;;5071807;28;20950;-67
2024/02/10 11:58:51;;;;;;;1.70;1.60;;;20.30;99.90;;;;;;5072124;28;20404;-67
2024/02/10 12:01:17;;;;;;;2.10;1.80;;;20.30;99.90;;;;;;5072235;28;20418;-67
2024/02/10 12:03:43;;;;;;;2.00;1.90;;;20.00;99.90;;;;;;5072643;28;20400;-66
2024/02/10 12:06:11;;;;;;;2.43;1.87;;;19.60;99.90;;;;;;5072039;28;20194;-66
2024/02/10 12:08:38;;;;;;;1.60;1.50;;;19.30;99.90;;;;;;5071793;28;20452;-67
2024/02/10 12:11:04;;;;;;;2.37;2.13;;;19.00;99.90;;;;;;5070828;28;20417;-67
2024/02/10 12:13:30;;;;;;;1.73;1.63;;;18.70;99.90;;;;;;5071957;28;20466;-67
2024/02/10 12:16:03;;;;;;;2.00;1.70;;;18.70;99.90;;;;;;5072131;28;20284;-66
2024/02/10 12:18:32;;;;;;;2.67;2.17;;;18.50;99.90;;;;;;5071771;28;20415;-67
2024/02/10 12:20:58;;;;;;;2.97;2.23;;;18.40;99.90;;;;;;5072517;28;20400;-67
2024/02/10 12:23:27;;;;;;;2.67;1.77;;;18.40;99.90;;;;;;5071955;28;20481;-67
2024/02/10 12:25:53;;;;;;;1.73;1.63;;;18.30;99.90;;;;;;5071937;28;20472;-67
2024/02/10 12:28:19;;;;;;;2.27;1.93;;;18.10;99.90;;;;;;5070691;28;20578;-67
2024/02/10 12:30:44;;;;;;;3.17;2.30;;;17.80;99.90;;;;;;5071604;28;20413;-66
2024/02/10 12:33:10;;;;;;;3.70;2.20;;;17.60;99.90;;;;;;5071754;28;20702;-66
2024/02/10 12:35:37;;;;;;;2.13;1.80;;;17.40;99.90;;;;;;5071817;28;20729;-67
2024/02/10 12:38:03;;;;;;;2.67;1.80;;;17.30;99.90;;;;;;5070599;28;20465;-67
2024/02/10 12:40:29;;;;;;;2.00;1.80;;;17.20;99.90;;;;;;5071632;28;20459;-67
2024/02/10 12:42:54;;;;;;;3.47;1.40;;;17.00;99.90;;;;;;5071799;28;20923;-67
2024/02/10 12:45:20;;;;;;;2.30;1.80;;;16.80;99.90;;;;;;5071715;28;20170;-67
2024/02/10 12:47:45;;;;;;;1.80;1.47;;;16.70;99.90;;;;;;5071697;28;20194;-67
2024/02/10 12:50:12;;;;;;;1.60;1.30;;;16.50;99.90;;;;;;5071951;28;20238;-67
2024/02/10 12:52:38;;;;;;;2.13;1.77;;;16.20;99.90;;;;;;5071668;28;20177;-67
2024/02/10 12:55:13;;;;;;;1.67;1.57;;;16.00;99.90;;;;;;5071724;28;20491;-67